Washburn, Missouri
Current Conditions -  °F | °C
As of 7:57 AM on Saturday 20 Dec 2014 (Local Time) from KROG Reporting Station
Overcast Overcast  
Wind Chill: 39°   Ceiling: 600
Heat Index: 39°   Visibility: 7mi
Dew Point: 38°   Wind: 3mph
Humidity: 96%   Direction: 290°WNW
Pressure: 30.23"   Gusts: NA
Location:  36.59°N, 93.97°W
Report Text: KROG 201357Z 29003KT 7SM OVC006 04/03 A3023 RMK AO2 CIG 004V008 SLP244 T00390033
Loading
Personal Weather Stations






























Interactive Weather Map New forecast layout! Learn more

10-Day Weather Forecast

Advertisements
Track Severe Weather on mobile